sensor_id;sensor_type;location;lat;lon;timestamp;pressure;altitude;pressure_sealevel;temperature;humidity
70506;BME280;58032;49.820;6.274;2022-07-23T00:01:23;97722.16;;;17.04;75.10
70506;BME280;58032;49.820;6.274;2022-07-23T00:03:50;97719.78;;;17.03;75.03
70506;BME280;58032;49.820;6.274;2022-07-23T00:06:18;97710.25;;;17.06;74.97
70506;BME280;58032;49.820;6.274;2022-07-23T00:08:45;97716.22;;;17.08;74.52
70506;BME280;58032;49.820;6.274;2022-07-23T00:11:12;97704.56;;;17.06;74.66
70506;BME280;58032;49.820;6.274;2022-07-23T00:13:39;97688.03;;;17.10;74.42
70506;BME280;58032;49.820;6.274;2022-07-23T00:16:06;97712.09;;;17.09;74.42
70506;BME280;58032;49.820;6.274;2022-07-23T00:18:34;97722.69;;;17.08;74.41
70506;BME280;58032;49.820;6.274;2022-07-23T00:21:01;97727.88;;;17.10;74.47
70506;BME280;58032;49.820;6.274;2022-07-23T00:23:28;97737.75;;;17.15;74.49
70506;BME280;58032;49.820;6.274;2022-07-23T00:25:56;97734.97;;;17.20;74.12
70506;BME280;58032;49.820;6.274;2022-07-23T00:28:23;97744.84;;;17.25;73.68
70506;BME280;58032;49.820;6.274;2022-07-23T00:30:50;97752.66;;;17.30;73.67
70506;BME280;58032;49.820;6.274;2022-07-23T00:33:17;97754.50;;;17.33;73.51
70506;BME280;58032;49.820;6.274;2022-07-23T00:35:44;97754.84;;;17.41;72.39
70506;BME280;58032;49.820;6.274;2022-07-23T00:38:12;97754.84;;;17.41;72.65
70506;BME280;58032;49.820;6.274;2022-07-23T00:40:39;97744.03;;;17.45;72.73
70506;BME280;58032;49.820;6.274;2022-07-23T00:43:07;97724.69;;;17.02;75.01
70506;BME280;58032;49.820;6.274;2022-07-23T00:45:35;97719.34;;;16.89;75.88
70506;BME280;58032;49.820;6.274;2022-07-23T00:48:07;97730.38;;;17.02;74.85
70506;BME280;58032;49.820;6.274;2022-07-23T00:50:35;97727.69;;;16.93;75.43
70506;BME280;58032;49.820;6.274;2022-07-23T00:53:02;97735.28;;;17.02;74.76
70506;BME280;58032;49.820;6.274;2022-07-23T00:55:29;97736.28;;;16.99;75.20
70506;BME280;58032;49.820;6.274;2022-07-23T00:57:57;97735.91;;;17.12;74.71
70506;BME280;58032;49.820;6.274;2022-07-23T01:00:24;97731.06;;;17.18;74.81
70506;BME280;58032;49.820;6.274;2022-07-23T01:02:51;97727.50;;;17.23;74.02
70506;BME280;58032;49.820;6.274;2022-07-23T01:05:18;97736.59;;;17.27;74.65
70506;BME280;58032;49.820;6.274;2022-07-23T01:07:50;97736.09;;;17.29;74.30
70506;BME280;58032;49.820;6.274;2022-07-23T01:10:20;97731.28;;;17.14;74.61
70506;BME280;58032;49.820;6.274;2022-07-23T01:13:06;97713.03;;;17.00;75.92
70506;BME280;58032;49.820;6.274;2022-07-23T01:15:35;97710.88;;;16.74;77.30
70506;BME280;58032;49.820;6.274;2022-07-23T01:18:04;97707.34;;;16.59;77.49
70506;BME280;58032;49.820;6.274;2022-07-23T01:20:33;97707.94;;;16.63;77.73
70506;BME280;58032;49.820;6.274;2022-07-23T01:23:00;97706.66;;;16.64;77.36
70506;BME280;58032;49.820;6.274;2022-07-23T01:25:28;97708.16;;;16.59;77.44
70506;BME280;58032;49.820;6.274;2022-07-23T01:27:58;97710.19;;;16.59;77.92
70506;BME280;58032;49.820;6.274;2022-07-23T01:30:26;97705.31;;;16.59;77.69
70506;BME280;58032;49.820;6.274;2022-07-23T01:32:58;97698.69;;;16.48;78.13
70506;BME280;58032;49.820;6.274;2022-07-23T01:35:25;97701.31;;;16.30;79.10
70506;BME280;58032;49.820;6.274;2022-07-23T01:37:57;97701.97;;;16.20;79.59
70506;BME280;58032;49.820;6.274;2022-07-23T01:40:24;97701.38;;;16.16;79.52
70506;BME280;58032;49.820;6.274;2022-07-23T01:42:52;97709.38;;;16.17;79.58
70506;BME280;58032;49.820;6.274;2022-07-23T01:45:19;97710.94;;;16.18;78.68
70506;BME280;58032;49.820;6.274;2022-07-23T01:47:50;97706.84;;;16.19;79.13
70506;BME280;58032;49.820;6.274;2022-07-23T01:50:17;97694.41;;;16.17;78.16
70506;BME280;58032;49.820;6.274;2022-07-23T01:52:58;97699.59;;;16.18;77.82
70506;BME280;58032;49.820;6.274;2022-07-23T01:55:26;97697.97;;;16.11;78.23
70506;BME280;58032;49.820;6.274;2022-07-23T01:57:53;97694.63;;;16.13;78.00
70506;BME280;58032;49.820;6.274;2022-07-23T02:00:22;97685.25;;;16.07;78.47
70506;BME280;58032;49.820;6.274;2022-07-23T02:02:51;97682.81;;;16.00;79.10
70506;BME280;58032;49.820;6.274;2022-07-23T02:05:18;97683.50;;;15.94;78.75
70506;BME280;58032;49.820;6.274;2022-07-23T02:07:45;97686.13;;;15.98;78.50
70506;BME280;58032;49.820;6.274;2022-07-23T02:10:12;97683.03;;;15.96;78.57
70506;BME280;58032;49.820;6.274;2022-07-23T02:12:39;97684.81;;;15.93;78.88
70506;BME280;58032;49.820;6.274;2022-07-23T02:15:09;97678.53;;;15.89;78.98
70506;BME280;58032;49.820;6.274;2022-07-23T02:17:36;97674.41;;;15.90;79.11
70506;BME280;58032;49.820;6.274;2022-07-23T02:20:05;97668.53;;;15.79;79.97
70506;BME280;58032;49.820;6.274;2022-07-23T02:22:32;97664.47;;;15.65;80.41
70506;BME280;58032;49.820;6.274;2022-07-23T02:24:59;97669.69;;;15.51;81.12
70506;BME280;58032;49.820;6.274;2022-07-23T02:27:27;97666.44;;;15.44;81.75
70506;BME280;58032;49.820;6.274;2022-07-23T02:29:55;97652.84;;;15.48;80.80
70506;BME280;58032;49.820;6.274;2022-07-23T02:32:22;97659.88;;;15.52;80.90
70506;BME280;58032;49.820;6.274;2022-07-23T02:34:49;97663.81;;;15.55;80.75
70506;BME280;58032;49.820;6.274;2022-07-23T02:37:19;97668.19;;;15.56;79.85
70506;BME280;58032;49.820;6.274;2022-07-23T02:39:46;97675.94;;;15.56;80.14
70506;BME280;58032;49.820;6.274;2022-07-23T02:42:15;97679.94;;;15.49;80.47
70506;BME280;58032;49.820;6.274;2022-07-23T02:44:43;97681.91;;;15.43;80.95
70506;BME280;58032;49.820;6.274;2022-07-23T02:47:11;97680.63;;;15.29;81.29
70506;BME280;58032;49.820;6.274;2022-07-23T02:49:38;97680.16;;;15.30;81.46
70506;BME280;58032;49.820;6.274;2022-07-23T02:52:05;97686.63;;;15.31;81.72
70506;BME280;58032;49.820;6.274;2022-07-23T02:54:32;97684.66;;;15.22;82.13
70506;BME280;58032;49.820;6.274;2022-07-23T02:57:00;97683.88;;;15.07;83.32
70506;BME280;58032;49.820;6.274;2022-07-23T02:59:27;97685.63;;;14.89;84.48
70506;BME280;58032;49.820;6.274;2022-07-23T03:01:54;97685.88;;;14.76;85.76
70506;BME280;58032;49.820;6.274;2022-07-23T03:04:21;97687.25;;;14.66;85.63
70506;BME280;58032;49.820;6.274;2022-07-23T03:06:48;97690.66;;;14.70;85.52
70506;BME280;58032;49.820;6.274;2022-07-23T03:09:15;97686.00;;;14.82;85.18
70506;BME280;58032;49.820;6.274;2022-07-23T03:11:42;97681.91;;;14.83;84.63
70506;BME280;58032;49.820;6.274;2022-07-23T03:14:09;97690.41;;;14.83;84.14
70506;BME280;58032;49.820;6.274;2022-07-23T03:16:40;97689.72;;;14.88;84.48
70506;BME280;58032;49.820;6.274;2022-07-23T03:19:07;97694.13;;;14.89;84.12
70506;BME280;58032;49.820;6.274;2022-07-23T03:21:34;97692.53;;;14.88;83.73
70506;BME280;58032;49.820;6.274;2022-07-23T03:24:01;97703.88;;;14.88;84.08
70506;BME280;58032;49.820;6.274;2022-07-23T03:26:29;97700.06;;;14.76;84.36
70506;BME280;58032;49.820;6.274;2022-07-23T03:28:56;97702.91;;;14.52;85.41
70506;BME280;58032;49.820;6.274;2022-07-23T03:31:23;97700.97;;;14.34;86.68
70506;BME280;58032;49.820;6.274;2022-07-23T03:33:51;97698.06;;;14.19;87.46
70506;BME280;58032;49.820;6.274;2022-07-23T03:36:19;97706.56;;;14.19;87.60
70506;BME280;58032;49.820;6.274;2022-07-23T03:38:46;97706.34;;;14.32;86.97
70506;BME280;58032;49.820;6.274;2022-07-23T03:41:13;97711.78;;;14.45;86.98
70506;BME280;58032;49.820;6.274;2022-07-23T03:43:40;97717.50;;;14.60;86.10
70506;BME280;58032;49.820;6.274;2022-07-23T03:46:07;97716.03;;;14.64;85.51
70506;BME280;58032;49.820;6.274;2022-07-23T03:48:34;97715.69;;;14.71;84.60
70506;BME280;58032;49.820;6.274;2022-07-23T03:51:01;97716.47;;;14.72;84.66
70506;BME280;58032;49.820;6.274;2022-07-23T03:53:28;97714.41;;;14.72;84.75
70506;BME280;58032;49.820;6.274;2022-07-23T03:55:55;97712.25;;;14.67;84.13
70506;BME280;58032;49.820;6.274;2022-07-23T03:58:23;97716.66;;;14.68;84.59
70506;BME280;58032;49.820;6.274;2022-07-23T04:00:50;97712.25;;;14.67;84.98
70506;BME280;58032;49.820;6.274;2022-07-23T04:03:17;97710.50;;;14.70;84.70
70506;BME280;58032;49.820;6.274;2022-07-23T04:05:44;97711.56;;;14.72;84.37
70506;BME280;58032;49.820;6.274;2022-07-23T04:08:13;97716.47;;;14.72;84.40
70506;BME280;58032;49.820;6.274;2022-07-23T04:10:43;97718.81;;;14.74;84.21
70506;BME280;58032;49.820;6.274;2022-07-23T04:13:11;97718.03;;;14.73;83.88
70506;BME280;58032;49.820;6.274;2022-07-23T04:15:39;97723.72;;;14.73;84.10
70506;BME280;58032;49.820;6.274;2022-07-23T04:18:06;97720.81;;;14.82;83.91
70506;BME280;58032;49.820;6.274;2022-07-23T04:20:53;97727.97;;;15.08;82.16
70506;BME280;58032;49.820;6.274;2022-07-23T04:23:20;97730.34;;;15.24;81.14
70506;BME280;58032;49.820;6.274;2022-07-23T04:25:47;97726.31;;;15.61;79.26
70506;BME280;58032;49.820;6.274;2022-07-23T04:28:15;97731.50;;;15.92;78.03
70506;BME280;58032;49.820;6.274;2022-07-23T04:30:42;97734.91;;;15.96;76.91
70506;BME280;58032;49.820;6.274;2022-07-23T04:33:11;97739.03;;;15.95;77.06
70506;BME280;58032;49.820;6.274;2022-07-23T04:35:39;97750.03;;;15.88;77.40
70506;BME280;58032;49.820;6.274;2022-07-23T04:38:17;97746.88;;;16.01;77.04
70506;BME280;58032;49.820;6.274;2022-07-23T04:40:45;97751.06;;;16.05;76.70
70506;BME280;58032;49.820;6.274;2022-07-23T04:43:12;97754.97;;;16.64;74.59
70506;BME280;58032;49.820;6.274;2022-07-23T04:45:45;97753.84;;;17.44;71.13
70506;BME280;58032;49.820;6.274;2022-07-23T04:48:12;97753.13;;;17.81;68.45
70506;BME280;58032;49.820;6.274;2022-07-23T04:50:40;97752.53;;;16.92;71.84
70506;BME280;58032;49.820;6.274;2022-07-23T04:53:14;97747.72;;;16.42;74.11
70506;BME280;58032;49.820;6.274;2022-07-23T04:55:42;97752.41;;;16.45;74.63
70506;BME280;58032;49.820;6.274;2022-07-23T04:58:09;97760.31;;;16.77;74.66
70506;BME280;58032;49.820;6.274;2022-07-23T05:00:36;97755.38;;;16.92;73.81
70506;BME280;58032;49.820;6.274;2022-07-23T05:03:03;97754.50;;;17.07;73.38
70506;BME280;58032;49.820;6.274;2022-07-23T05:05:31;97765.28;;;17.03;73.26
70506;BME280;58032;49.820;6.274;2022-07-23T05:08:06;97767.41;;;17.29;73.00
70506;BME280;58032;49.820;6.274;2022-07-23T05:10:35;97768.56;;;17.69;70.79
70506;BME280;58032;49.820;6.274;2022-07-23T05:13:02;97769.41;;;17.02;72.50
70506;BME280;58032;49.820;6.274;2022-07-23T05:15:29;97775.72;;;16.50;74.73
70506;BME280;58032;49.820;6.274;2022-07-23T05:17:57;97768.72;;;16.30;76.13
70506;BME280;58032;49.820;6.274;2022-07-23T05:20:25;97769.88;;;16.38;76.05
70506;BME280;58032;49.820;6.274;2022-07-23T05:22:52;97767.31;;;16.40;75.93
70506;BME280;58032;49.820;6.274;2022-07-23T05:25:19;97769.00;;;16.32;76.82
70506;BME280;58032;49.820;6.274;2022-07-23T05:27:46;97768.34;;;17.46;71.92
70506;BME280;58032;49.820;6.274;2022-07-23T05:30:14;97760.19;;;19.33;65.95
70506;BME280;58032;49.820;6.274;2022-07-23T05:32:43;97763.66;;;20.00;61.91
70506;BME280;58032;49.820;6.274;2022-07-23T05:35:14;97767.28;;;19.72;62.52
70506;BME280;58032;49.820;6.274;2022-07-23T05:37:48;97766.75;;;19.73;63.23
70506;BME280;58032;49.820;6.274;2022-07-23T05:40:15;97776.75;;;18.57;66.96
70506;BME280;58032;49.820;6.274;2022-07-23T05:42:42;97773.44;;;19.48;64.04
70506;BME280;58032;49.820;6.274;2022-07-23T05:45:10;97780.72;;;19.49;64.19
70506;BME280;58032;49.820;6.274;2022-07-23T05:47:42;97787.41;;;19.28;63.84
70506;BME280;58032;49.820;6.274;2022-07-23T05:50:11;97795.19;;;18.62;66.53
70506;BME280;58032;49.820;6.274;2022-07-23T05:52:46;97784.44;;;18.45;66.01
70506;BME280;58032;49.820;6.274;2022-07-23T05:55:27;97795.63;;;17.85;68.04
70506;BME280;58032;49.820;6.274;2022-07-23T05:57:56;97801.38;;;18.60;67.12
70506;BME280;58032;49.820;6.274;2022-07-23T06:00:24;97796.31;;;18.81;65.06
70506;BME280;58032;49.820;6.274;2022-07-23T06:02:52;97804.91;;;18.87;66.14
70506;BME280;58032;49.820;6.274;2022-07-23T06:05:21;97807.19;;;18.83;64.78
70506;BME280;58032;49.820;6.274;2022-07-23T06:07:48;97813.06;;;18.62;65.26
70506;BME280;58032;49.820;6.274;2022-07-23T06:10:16;97800.50;;;19.75;62.09
70506;BME280;58032;49.820;6.274;2022-07-23T06:12:43;97804.31;;;18.72;64.42
70506;BME280;58032;49.820;6.274;2022-07-23T06:15:11;97805.50;;;17.90;67.09
70506;BME280;58032;49.820;6.274;2022-07-23T06:17:39;97801.03;;;18.47;65.94
70506;BME280;58032;49.820;6.274;2022-07-23T06:20:08;97808.06;;;18.95;64.32
70506;BME280;58032;49.820;6.274;2022-07-23T06:22:38;97805.69;;;19.65;62.46
70506;BME280;58032;49.820;6.274;2022-07-23T06:25:06;97808.34;;;20.08;59.57
70506;BME280;58032;49.820;6.274;2022-07-23T06:27:33;97801.34;;;20.15;59.56
70506;BME280;58032;49.820;6.274;2022-07-23T06:30:01;97808.63;;;19.99;59.45
70506;BME280;58032;49.820;6.274;2022-07-23T06:32:28;97811.19;;;20.43;58.28
70506;BME280;58032;49.820;6.274;2022-07-23T06:34:55;97805.84;;;21.03;56.27
70506;BME280;58032;49.820;6.274;2022-07-23T06:37:22;97809.84;;;20.78;55.63
70506;BME280;58032;49.820;6.274;2022-07-23T06:39:49;97814.06;;;20.26;57.68
70506;BME280;58032;49.820;6.274;2022-07-23T06:42:16;97809.09;;;20.43;56.95
70506;BME280;58032;49.820;6.274;2022-07-23T06:44:44;97805.94;;;20.81;55.85
70506;BME280;58032;49.820;6.274;2022-07-23T06:47:14;97810.91;;;20.75;54.56
70506;BME280;58032;49.820;6.274;2022-07-23T06:49:41;97814.59;;;20.18;58.07
70506;BME280;58032;49.820;6.274;2022-07-23T06:52:08;97819.25;;;20.38;56.33
70506;BME280;58032;49.820;6.274;2022-07-23T06:54:35;97808.47;;;21.01;55.17
70506;BME280;58032;49.820;6.274;2022-07-23T06:57:03;97817.81;;;22.64;50.41
70506;BME280;58032;49.820;6.274;2022-07-23T06:59:30;97813.19;;;22.24;51.67
70506;BME280;58032;49.820;6.274;2022-07-23T07:01:58;97816.75;;;21.11;53.54
70506;BME280;58032;49.820;6.274;2022-07-23T07:04:25;97831.94;;;19.81;56.42
70506;BME280;58032;49.820;6.274;2022-07-23T07:06:52;97826.91;;;21.06;54.63
70506;BME280;58032;49.820;6.274;2022-07-23T07:09:19;97829.25;;;21.72;51.88
70506;BME280;58032;49.820;6.274;2022-07-23T07:11:46;97829.59;;;23.10;49.77
70506;BME280;58032;49.820;6.274;2022-07-23T07:14:13;97830.38;;;21.52;51.77
70506;BME280;58032;49.820;6.274;2022-07-23T07:16:40;97828.69;;;22.10;50.91
70506;BME280;58032;49.820;6.274;2022-07-23T07:19:07;97831.97;;;21.47;52.98
70506;BME280;58032;49.820;6.274;2022-07-23T07:21:34;97839.56;;;22.53;49.86
70506;BME280;58032;49.820;6.274;2022-07-23T07:24:02;97837.72;;;22.25;48.21
70506;BME280;58032;49.820;6.274;2022-07-23T07:26:29;97848.69;;;22.82;48.64
70506;BME280;58032;49.820;6.274;2022-07-23T07:29:00;97845.47;;;24.12;45.11
70506;BME280;58032;49.820;6.274;2022-07-23T07:31:27;97844.94;;;23.18;46.97
70506;BME280;58032;49.820;6.274;2022-07-23T07:33:54;97842.47;;;24.69;43.87
70506;BME280;58032;49.820;6.274;2022-07-23T07:36:23;97840.59;;;24.39;45.20
70506;BME280;58032;49.820;6.274;2022-07-23T07:38:50;97845.50;;;24.44;43.88
70506;BME280;58032;49.820;6.274;2022-07-23T07:41:17;97840.38;;;24.83;43.78
70506;BME280;58032;49.820;6.274;2022-07-23T07:43:50;97858.28;;;22.60;45.35
70506;BME280;58032;49.820;6.274;2022-07-23T07:46:17;97850.22;;;22.22;45.93
70506;BME280;58032;49.820;6.274;2022-07-23T07:48:44;97860.63;;;22.61;45.49
70506;BME280;58032;49.820;6.274;2022-07-23T07:51:11;97859.72;;;23.85;43.75
70506;BME280;58032;49.820;6.274;2022-07-23T07:53:38;97850.00;;;25.53;40.90
70506;BME280;58032;49.820;6.274;2022-07-23T07:56:05;97851.59;;;26.23;39.52
70506;BME280;58032;49.820;6.274;2022-07-23T07:58:32;97847.38;;;26.66;39.10
70506;BME280;58032;49.820;6.274;2022-07-23T08:01:00;97842.72;;;27.13;36.97
70506;BME280;58032;49.820;6.274;2022-07-23T08:03:27;97840.59;;;27.43;36.73
70506;BME280;58032;49.820;6.274;2022-07-23T08:05:54;97848.53;;;26.71;38.73
70506;BME280;58032;49.820;6.274;2022-07-23T08:08:21;97842.38;;;26.46;38.02
70506;BME280;58032;49.820;6.274;2022-07-23T08:10:48;97836.94;;;27.13;35.89
70506;BME280;58032;49.820;6.274;2022-07-23T08:13:16;97851.81;;;26.25;37.07
70506;BME280;58032;49.820;6.274;2022-07-23T08:15:43;97838.66;;;25.68;37.16
70506;BME280;58032;49.820;6.274;2022-07-23T08:18:10;97839.28;;;27.59;36.85
70506;BME280;58032;49.820;6.274;2022-07-23T08:20:38;97852.34;;;25.54;37.95
70506;BME280;58032;49.820;6.274;2022-07-23T08:23:07;97846.84;;;27.62;36.81
70506;BME280;58032;49.820;6.274;2022-07-23T08:25:36;97849.31;;;27.22;36.80
70506;BME280;58032;49.820;6.274;2022-07-23T08:28:06;97839.34;;;28.35;34.98
70506;BME280;58032;49.820;6.274;2022-07-23T08:30:34;97849.97;;;28.55;34.30
70506;BME280;58032;49.820;6.274;2022-07-23T08:33:08;97847.34;;;27.98;34.69
70506;BME280;58032;49.820;6.274;2022-07-23T08:35:39;97843.72;;;27.53;34.61
70506;BME280;58032;49.820;6.274;2022-07-23T08:38:09;97846.88;;;26.12;37.45
70506;BME280;58032;49.820;6.274;2022-07-23T08:40:45;97854.56;;;25.08;40.49
70506;BME280;58032;49.820;6.274;2022-07-23T08:43:14;97848.16;;;25.15;41.62
70506;BME280;58032;49.820;6.274;2022-07-23T08:45:44;97858.84;;;27.82;35.87
70506;BME280;58032;49.820;6.274;2022-07-23T08:48:16;97855.00;;;28.63;33.62
70506;BME280;58032;49.820;6.274;2022-07-23T08:50:55;97847.97;;;29.43;32.60
70506;BME280;58032;49.820;6.274;2022-07-23T08:53:23;97845.19;;;29.61;33.01
70506;BME280;58032;49.820;6.274;2022-07-23T08:55:55;97854.38;;;29.26;33.79
70506;BME280;58032;49.820;6.274;2022-07-23T08:58:23;97854.94;;;28.08;33.99
70506;BME280;58032;49.820;6.274;2022-07-23T09:00:53;97853.16;;;26.66;36.92
70506;BME280;58032;49.820;6.274;2022-07-23T09:03:25;97846.41;;;28.03;34.90
70506;BME280;58032;49.820;6.274;2022-07-23T09:05:54;97850.59;;;26.84;35.98
70506;BME280;58032;49.820;6.274;2022-07-23T09:08:44;97843.94;;;27.55;36.02
70506;BME280;58032;49.820;6.274;2022-07-23T09:11:17;97848.03;;;27.75;35.93
70506;BME280;58032;49.820;6.274;2022-07-23T09:13:48;97856.97;;;27.85;36.29
70506;BME280;58032;49.820;6.274;2022-07-23T09:16:16;97853.38;;;26.97;36.08
70506;BME280;58032;49.820;6.274;2022-07-23T09:19:05;97844.00;;;29.72;32.07
70506;BME280;58032;49.820;6.274;2022-07-23T09:21:37;97852.47;;;29.77;32.88
70506;BME280;58032;49.820;6.274;2022-07-23T09:24:12;97857.34;;;28.80;32.97
70506;BME280;58032;49.820;6.274;2022-07-23T09:26:46;97864.19;;;27.62;35.99
70506;BME280;58032;49.820;6.274;2022-07-23T09:29:22;97856.22;;;27.18;36.89
70506;BME280;58032;49.820;6.274;2022-07-23T09:34:19;97861.56;;;26.01;39.06
70506;BME280;58032;49.820;6.274;2022-07-23T09:36:47;97859.91;;;25.92;39.31
70506;BME280;58032;49.820;6.274;2022-07-23T09:39:22;97865.06;;;25.72;40.01
70506;BME280;58032;49.820;6.274;2022-07-23T09:41:50;97866.50;;;26.14;40.17
70506;BME280;58032;49.820;6.274;2022-07-23T09:44:20;97873.19;;;25.07;40.48
70506;BME280;58032;49.820;6.274;2022-07-23T09:46:58;97875.72;;;25.24;40.77
70506;BME280;58032;49.820;6.274;2022-07-23T09:49:25;97871.13;;;25.82;39.68
70506;BME280;58032;49.820;6.274;2022-07-23T09:51:55;97882.03;;;25.76;39.83
70506;BME280;58032;49.820;6.274;2022-07-23T09:56:52;97877.47;;;24.73;41.37
70506;BME280;58032;49.820;6.274;2022-07-23T09:59:24;97879.19;;;25.22;40.67
70506;BME280;58032;49.820;6.274;2022-07-23T10:01:54;97877.69;;;25.69;39.78
70506;BME280;58032;49.820;6.274;2022-07-23T10:04:24;97872.50;;;26.16;39.56
70506;BME280;58032;49.820;6.274;2022-07-23T10:07:10;97864.28;;;26.06;39.30
70506;BME280;58032;49.820;6.274;2022-07-23T10:09:56;97873.97;;;26.30;39.52
70506;BME280;58032;49.820;6.274;2022-07-23T10:12:44;97873.66;;;26.76;38.10
70506;BME280;58032;49.820;6.274;2022-07-23T10:15:35;97868.16;;;27.15;36.46
70506;BME280;58032;49.820;6.274;2022-07-23T10:18:03;97871.56;;;27.06;38.08
70506;BME280;58032;49.820;6.274;2022-07-23T10:20:30;97876.22;;;27.09;37.45
70506;BME280;58032;49.820;6.274;2022-07-23T10:23:04;97874.19;;;26.32;37.12
70506;BME280;58032;49.820;6.274;2022-07-23T10:31:48;97874.63;;;26.15;39.26
70506;BME280;58032;49.820;6.274;2022-07-23T10:37:21;97869.06;;;25.16;40.72
70506;BME280;58032;49.820;6.274;2022-07-23T10:42:38;97861.72;;;27.38;38.58
70506;BME280;58032;49.820;6.274;2022-07-23T10:45:26;97872.53;;;26.58;37.52
70506;BME280;58032;49.820;6.274;2022-07-23T10:47:54;97868.78;;;26.29;36.40
70506;BME280;58032;49.820;6.274;2022-07-23T10:50:24;97860.03;;;26.63;36.74
70506;BME280;58032;49.820;6.274;2022-07-23T10:58:03;97855.97;;;26.80;36.42
70506;BME280;58032;49.820;6.274;2022-07-23T11:00:32;97868.03;;;26.99;35.76
70506;BME280;58032;49.820;6.274;2022-07-23T11:03:02;97862.16;;;26.84;35.34
70506;BME280;58032;49.820;6.274;2022-07-23T11:05:39;97855.66;;;26.91;34.47
70506;BME280;58032;49.820;6.274;2022-07-23T11:13:30;97854.38;;;27.00;35.89
70506;BME280;58032;49.820;6.274;2022-07-23T11:24:10;97854.41;;;27.37;35.19
70506;BME280;58032;49.820;6.274;2022-07-23T11:37:00;97851.16;;;26.61;36.09
70506;BME280;58032;49.820;6.274;2022-07-23T11:39:29;97847.84;;;26.15;36.93
70506;BME280;58032;49.820;6.274;2022-07-23T11:41:57;97854.97;;;25.66;37.57
70506;BME280;58032;49.820;6.274;2022-07-23T11:44:36;97845.13;;;26.09;37.58
70506;BME280;58032;49.820;6.274;2022-07-23T11:47:08;97839.91;;;26.50;35.88
70506;BME280;58032;49.820;6.274;2022-07-23T11:49:36;97846.88;;;26.76;34.54
70506;BME280;58032;49.820;6.274;2022-07-23T11:52:05;97845.75;;;26.02;35.67
70506;BME280;58032;49.820;6.274;2022-07-23T11:54:34;97841.16;;;27.12;34.64
70506;BME280;58032;49.820;6.274;2022-07-23T11:57:04;97845.97;;;27.91;33.67
70506;BME280;58032;49.820;6.274;2022-07-23T11:59:32;97832.75;;;28.11;32.65
70506;BME280;58032;49.820;6.274;2022-07-23T12:02:02;97838.31;;;27.49;33.28
70506;BME280;58032;49.820;6.274;2022-07-23T12:04:42;97837.38;;;28.14;32.56
70506;BME280;58032;49.820;6.274;2022-07-23T12:09:51;97838.81;;;27.84;34.05
70506;BME280;58032;49.820;6.274;2022-07-23T12:12:18;97832.38;;;28.38;32.52
70506;BME280;58032;49.820;6.274;2022-07-23T12:14:56;97839.75;;;28.85;31.16
70506;BME280;58032;49.820;6.274;2022-07-23T12:17:32;97833.88;;;30.21;27.59
70506;BME280;58032;49.820;6.274;2022-07-23T12:20:01;97835.03;;;29.36;30.98
70506;BME280;58032;49.820;6.274;2022-07-23T12:22:51;97825.44;;;28.95;30.79
70506;BME280;58032;49.820;6.274;2022-07-23T12:25:20;97824.16;;;32.00;29.06
70506;BME280;58032;49.820;6.274;2022-07-23T12:28:08;97820.91;;;32.97;25.07
70506;BME280;58032;49.820;6.274;2022-07-23T12:30:43;97821.44;;;33.72;23.33
70506;BME280;58032;49.820;6.274;2022-07-23T12:35:48;97829.72;;;33.46;23.60
70506;BME280;58032;49.820;6.274;2022-07-23T12:38:18;97818.63;;;33.15;24.81
70506;BME280;58032;49.820;6.274;2022-07-23T12:43:29;97824.13;;;34.92;23.43
70506;BME280;58032;49.820;6.274;2022-07-23T12:46:03;97822.25;;;35.62;22.21
70506;BME280;58032;49.820;6.274;2022-07-23T12:48:32;97831.34;;;35.78;23.02
70506;BME280;58032;49.820;6.274;2022-07-23T12:51:17;97829.88;;;33.68;24.16
70506;BME280;58032;49.820;6.274;2022-07-23T12:53:53;97835.59;;;31.88;26.28
70506;BME280;58032;49.820;6.274;2022-07-23T12:56:31;97831.09;;;31.60;26.25
70506;BME280;58032;49.820;6.274;2022-07-23T13:01:38;97832.19;;;29.69;29.84
70506;BME280;58032;49.820;6.274;2022-07-23T13:04:08;97831.25;;;29.67;30.04
70506;BME280;58032;49.820;6.274;2022-07-23T13:09:16;97830.78;;;29.30;30.44
70506;BME280;58032;49.820;6.274;2022-07-23T13:11:44;97842.25;;;28.42;33.26
70506;BME280;58032;49.820;6.274;2022-07-23T13:14:12;97844.16;;;28.32;32.05
70506;BME280;58032;49.820;6.274;2022-07-23T13:16:40;97832.56;;;28.24;33.79
70506;BME280;58032;49.820;6.274;2022-07-23T13:19:08;97832.66;;;29.50;30.66
70506;BME280;58032;49.820;6.274;2022-07-23T13:21:35;97830.59;;;30.17;29.72
70506;BME280;58032;49.820;6.274;2022-07-23T13:24:03;97837.44;;;30.12;29.85
70506;BME280;58032;49.820;6.274;2022-07-23T13:26:30;97840.00;;;30.84;29.50
70506;BME280;58032;49.820;6.274;2022-07-23T13:28:57;97833.97;;;31.07;28.53
70506;BME280;58032;49.820;6.274;2022-07-23T13:31:24;97833.47;;;32.16;25.67
70506;BME280;58032;49.820;6.274;2022-07-23T13:33:51;97837.09;;;32.07;25.91
70506;BME280;58032;49.820;6.274;2022-07-23T13:36:19;97837.59;;;33.64;25.89
70506;BME280;58032;49.820;6.274;2022-07-23T13:38:47;97833.00;;;32.37;26.32
70506;BME280;58032;49.820;6.274;2022-07-23T13:41:16;97830.47;;;33.96;24.91
70506;BME280;58032;49.820;6.274;2022-07-23T13:43:43;97832.66;;;33.56;24.82
70506;BME280;58032;49.820;6.274;2022-07-23T13:46:10;97836.25;;;32.51;26.51
70506;BME280;58032;49.820;6.274;2022-07-23T13:48:37;97848.47;;;30.39;29.38
70506;BME280;58032;49.820;6.274;2022-07-23T13:51:04;97837.41;;;30.70;29.12
70506;BME280;58032;49.820;6.274;2022-07-23T13:53:31;97836.91;;;32.22;26.30
70506;BME280;58032;49.820;6.274;2022-07-23T13:55:58;97835.53;;;31.78;27.22
70506;BME280;58032;49.820;6.274;2022-07-23T13:58:25;97828.84;;;30.98;28.66
70506;BME280;58032;49.820;6.274;2022-07-23T14:00:53;97833.59;;;28.81;31.30
70506;BME280;58032;49.820;6.274;2022-07-23T14:03:22;97839.16;;;28.56;32.89
70506;BME280;58032;49.820;6.274;2022-07-23T14:05:52;97835.03;;;29.29;32.09
70506;BME280;58032;49.820;6.274;2022-07-23T14:08:19;97837.22;;;28.35;33.14
70506;BME280;58032;49.820;6.274;2022-07-23T14:10:46;97831.63;;;29.63;32.10